Time;durP1;ratioP1;P1;durP2;ratioP2;P2;SDS_P1;SDS_P2;PMS_P1;PMS_P2;Temp;Humidity;BMP_temperature;BMP_pressure;BME280_temperature;BME280_humidity;BME280_pressure;Samples;Min_cycle;Max_cycle;Signal;HPM_P1;HPM_P2
2023/04/01 00:00:23;;;;;;;;;;;;;;;14.90;100.00;97037.88;5020752;28;19935;-40
2023/04/01 00:02:49;;;;;;;;;;;;;;;14.07;100.00;97056.53;5017607;28;19921;-40
2023/04/01 00:05:14;;;;;;;;;;;;;;;13.99;100.00;97065.72;5019121;28;20045;-40
2023/04/01 00:07:39;;;;;;;;;;;;;;;14.55;100.00;97071.78;5018632;28;19963;-40
2023/04/01 00:10:06;;;;;;;;;;;;;;;14.07;100.00;97072.06;5020502;28;19927;-41
2023/04/01 00:12:31;;;;;;;;;;;;;;;14.08;100.00;97092.66;5018804;28;19947;-40
2023/04/01 00:14:56;;;;;;;;;;;;;;;13.09;100.00;97069.88;5018295;28;19921;-41
2023/04/01 00:17:22;;;;;;;;;;;;;;;13.89;100.00;97142.41;5019036;28;19925;-40
2023/04/01 00:19:48;;;;;;;;;;;;;;;14.04;100.00;97129.25;5019899;28;19928;-41
2023/04/01 00:22:13;;;;;;;;;;;;;;;13.95;100.00;97160.03;5018782;28;19924;-41
2023/04/01 00:24:38;;;;;;;;;;;;;;;13.56;100.00;97109.53;5018960;28;19959;-40
2023/04/01 00:27:03;;;;;;;;;;;;;;;13.76;100.00;97121.78;5018086;28;20011;-40
2023/04/01 00:29:30;;;;;;;;;;;;;;;14.23;100.00;97125.13;5022307;28;19924;-40
2023/04/01 00:31:56;;;;;;;;;;;;;;;13.64;100.00;97114.97;5019146;28;20865;-40
2023/04/01 00:34:21;;;;;;;;;;;;;;;13.70;100.00;97131.78;5022057;28;19921;-41
2023/04/01 00:36:46;;;;;;;;;;;;;;;13.88;100.00;97120.03;5021953;28;19925;-40
2023/04/01 00:39:11;;;;;;;;;;;;;;;13.74;100.00;97091.81;5024564;28;19963;-40
2023/04/01 00:41:37;;;;;;;;;;;;;;;13.62;100.00;97103.09;5037957;28;19917;-40
2023/04/01 00:44:17;;;;;;;;;;;;;;;14.07;100.00;97113.47;5036972;28;19924;-41
2023/04/01 00:46:43;;;;;;;;;;;;;;;14.17;100.00;97084.19;5038840;28;19983;-41
2023/04/01 00:49:08;;;;;;;;;;;;;;;13.58;100.00;97087.78;5039615;28;19921;-41
2023/04/01 00:51:35;;;;;;;;;;;;;;;14.56;100.00;97122.66;5039983;28;20747;-40
2023/04/01 00:54:03;;;;;;;;;;;;;;;13.74;100.00;97069.34;5038444;28;19920;-41
2023/04/01 00:56:40;;;;;;;;;;;;;;;14.05;100.00;97115.34;5037114;28;19916;-41
2023/04/01 00:59:10;;;;;;;;;;;;;;;13.08;100.00;97107.00;5038666;28;19924;-40
2023/04/01 01:01:36;;;;;;;;;;;;;;;13.82;100.00;97164.47;5036005;28;19939;-40
2023/04/01 01:04:02;;;;;;;;;;;;;;;13.67;100.00;97143.19;5038755;28;20515;-40
2023/04/01 01:06:27;;;;;;;;;;;;;;;13.39;100.00;97139.22;5038179;28;20377;-40
2023/04/01 01:08:57;;;;;;;;;;;;;;;13.62;100.00;97134.94;5038796;28;19951;-40
2023/04/01 01:11:26;;;;;;;;;;;;;;;13.50;100.00;97141.00;5037545;28;19920;-41
2023/04/01 01:14:08;;;;;;;;;;;;;;;13.75;100.00;97125.34;5037150;28;19921;-40
2023/04/01 01:16:35;;;;;;;;;;;;;;;14.47;100.00;97107.81;5036982;28;19974;-43
2023/04/01 01:19:17;;;;;;;;;;;;;;;13.52;100.00;97071.91;5037310;28;19920;-40
2023/04/01 01:21:51;;;;;;;;;;;;;;;13.88;100.00;97091.56;5037727;28;19917;-40
2023/04/01 01:24:19;;;;;;;;;;;;;;;14.07;100.00;97072.06;5037471;28;20583;-40
2023/04/01 01:26:45;;;;;;;;;;;;;;;14.47;100.00;97067.19;5037818;28;20136;-41
2023/04/01 01:29:20;;;;;;;;;;;;;;;14.37;100.00;97027.44;5038411;28;20516;-41
2023/04/01 01:31:54;;;;;;;;;;;;;;;13.21;100.00;97012.13;5039323;28;19923;-40
2023/04/01 01:34:25;;;;;;;;;;;;;;;14.27;100.00;97039.44;5039645;28;19944;-40
2023/04/01 01:36:53;;;;;;;;;;;;;;;13.46;100.00;97000.78;5036950;28;20461;-40
2023/04/01 01:39:18;;;;;;;;;;;;;;;13.97;100.00;97025.38;5037027;28;19951;-40
2023/04/01 01:41:43;;;;;;;;;;;;;;;14.21;100.00;97007.94;5037769;28;19917;-41
2023/04/01 01:44:10;;;;;;;;;;;;;;;13.90;100.00;96987.97;5034553;28;19978;-41
2023/04/01 01:46:35;;;;;;;;;;;;;;;13.32;100.00;97009.59;5036673;28;19923;-41
2023/04/01 01:49:00;;;;;;;;;;;;;;;13.60;100.00;97044.53;5038824;28;19916;-40
2023/04/01 01:51:26;;;;;;;;;;;;;;;13.18;100.00;97071.78;5035702;28;19927;-40
2023/04/01 01:53:51;;;;;;;;;;;;;;;14.17;100.00;97073.81;5035931;28;20015;-40
2023/04/01 01:56:17;;;;;;;;;;;;;;;13.93;100.00;97019.59;5035926;28;19924;-41
2023/04/01 01:58:43;;;;;;;;;;;;;;;13.84;100.00;97029.84;5019691;28;19921;-42
2023/04/01 02:01:10;;;;;;;;;;;;;;;14.05;100.00;97010.06;5018723;28;20432;-42
2023/04/01 02:03:36;;;;;;;;;;;;;;;14.06;100.00;97029.81;5036444;28;20185;-41
2023/04/01 02:06:03;;;;;;;;;;;;;;;13.61;100.00;97050.50;5034786;28;19964;-41
2023/04/01 02:08:35;;;;;;;;;;;;;;;13.86;100.00;97053.81;5035591;28;20408;-40
2023/04/01 02:11:02;;;;;;;;;;;;;;;13.68;100.00;97076.75;5034894;28;19974;-41
2023/04/01 02:13:29;;;;;;;;;;;;;;;13.69;100.00;97066.28;5034696;28;20659;-41
2023/04/01 02:15:55;;;;;;;;;;;;;;;14.02;100.00;97080.19;5033479;28;19943;-41
2023/04/01 02:18:20;;;;;;;;;;;;;;;13.97;100.00;97072.75;5036339;28;19920;-41
2023/04/01 02:20:45;;;;;;;;;;;;;;;14.15;100.00;97064.53;5034913;28;19924;-40
2023/04/01 02:23:11;;;;;;;;;;;;;;;13.78;100.00;97054.44;5036516;28;19920;-41
2023/04/01 02:25:36;;;;;;;;;;;;;;;14.35;100.00;97016.38;5033927;28;20357;-41
2023/04/01 02:28:02;;;;;;;;;;;;;;;14.44;100.00;96989.75;5033859;28;20668;-41
2023/04/01 02:30:27;;;;;;;;;;;;;;;13.45;100.00;96982.78;5051098;28;19921;-41
2023/04/01 02:32:52;;;;;;;;;;;;;;;14.09;100.00;97011.47;5035052;28;20003;-40
2023/04/01 02:35:18;;;;;;;;;;;;;;;14.13;100.00;96973.22;5033472;28;20488;-40
2023/04/01 02:37:43;;;;;;;;;;;;;;;13.68;100.00;96974.09;5034673;28;20266;-41
2023/04/01 02:40:10;;;;;;;;;;;;;;;13.71;100.00;97004.91;5034412;28;19925;-41
2023/04/01 02:42:35;;;;;;;;;;;;;;;13.84;100.00;97027.25;5035284;28;20400;-41
2023/04/01 02:45:00;;;;;;;;;;;;;;;13.69;100.00;96999.03;5033012;28;19921;-40
2023/04/01 02:47:25;;;;;;;;;;;;;;;14.27;100.00;97016.97;5036738;28;19924;-41
2023/04/01 02:49:57;;;;;;;;;;;;;;;14.39;100.00;96984.94;5036156;28;20839;-40
2023/04/01 02:52:22;;;;;;;;;;;;;;;13.85;100.00;96977.16;5036220;28;19979;-40
2023/04/01 02:54:47;;;;;;;;;;;;;;;14.03;100.00;97014.53;5036263;28;19928;-40
2023/04/01 02:57:13;;;;;;;;;;;;;;;13.87;100.00;97014.09;5033779;28;20031;-41
2023/04/01 02:59:38;;;;;;;;;;;;;;;13.77;100.00;97040.66;5035857;28;19935;-41
2023/04/01 03:02:03;;;;;;;;;;;;;;;13.51;100.00;97034.88;5034552;28;19925;-41
2023/04/01 03:04:28;;;;;;;;;;;;;;;14.12;100.00;97073.38;5034954;28;20012;-41
2023/04/01 03:06:55;;;;;;;;;;;;;;;13.81;100.00;97043.84;5033512;28;19920;-41
2023/04/01 03:09:20;;;;;;;;;;;;;;;13.63;100.00;97033.13;5035083;28;20004;-40
2023/04/01 03:11:45;;;;;;;;;;;;;;;13.86;100.00;97074.53;5035795;28;19920;-40
2023/04/01 03:14:10;;;;;;;;;;;;;;;14.25;100.00;97072.41;5034851;28;19925;-40
2023/04/01 03:16:36;;;;;;;;;;;;;;;13.60;100.00;97043.72;5033129;28;19920;-41
2023/04/01 03:19:02;;;;;;;;;;;;;;;13.57;100.00;97059.44;5035540;28;19970;-41
2023/04/01 03:21:27;;;;;;;;;;;;;;;13.60;100.00;97079.91;5035469;28;19920;-40
2023/04/01 03:23:52;;;;;;;;;;;;;;;13.95;100.00;97081.59;5034622;28;19924;-40
2023/04/01 03:26:18;;;;;;;;;;;;;;;13.88;100.00;97062.31;5034365;28;21278;-41
2023/04/01 03:28:43;;;;;;;;;;;;;;;14.19;100.00;97053.81;5035184;28;19925;-41
2023/04/01 03:31:08;;;;;;;;;;;;;;;14.84;100.00;97025.41;5035178;28;19929;-41
2023/04/01 03:33:33;;;;;;;;;;;;;;;14.08;100.00;96996.88;5036181;28;19970;-40
2023/04/01 03:35:59;;;;;;;;;;;;;;;14.31;100.00;96997.66;5034288;28;19928;-40
2023/04/01 03:38:24;;;;;;;;;;;;;;;13.27;100.00;97000.47;5035565;28;19939;-40
2023/04/01 03:40:49;;;;;;;;;;;;;;;13.59;100.00;97048.06;5034530;28;20006;-40
2023/04/01 03:43:16;;;;;;;;;;;;;;;13.48;100.00;97060.13;5035214;28;20166;-40
2023/04/01 03:45:49;;;;;;;;;;;;;;;13.20;100.00;97062.16;5032630;28;19920;-40
2023/04/01 03:48:15;;;;;;;;;;;;;;;13.11;100.00;97073.16;5033856;28;19921;-41
2023/04/01 03:50:40;;;;;;;;;;;;;;;13.33;100.00;97099.13;5035230;28;20408;-40
2023/04/01 03:53:05;;;;;;;;;;;;;;;13.54;100.00;97075.19;5033756;28;19960;-41
2023/04/01 03:55:31;;;;;;;;;;;;;;;13.25;100.00;97057.50;5034087;28;19964;-40
2023/04/01 03:57:56;;;;;;;;;;;;;;;13.63;100.00;97078.84;5033723;28;19954;-40
2023/04/01 04:00:21;;;;;;;;;;;;;;;13.62;100.00;97075.47;5034775;28;19924;-40
2023/04/01 04:02:46;;;;;;;;;;;;;;;13.57;100.00;97038.75;5034914;28;19971;-40
2023/04/01 04:05:13;;;;;;;;;;;;;;;13.22;100.00;97059.47;5033537;28;19921;-41
2023/04/01 04:07:38;;;;;;;;;;;;;;;13.19;100.00;97055.34;5035060;28;19920;-40
2023/04/01 04:10:04;;;;;;;;;;;;;;;13.39;100.00;97046.97;5034288;28;19967;-41
2023/04/01 04:12:29;;;;;;;;;;;;;;;13.42;100.00;97053.66;5034396;28;20452;-40
2023/04/01 04:14:54;;;;;;;;;;;;;;;12.95;100.00;97026.94;5033872;28;20081;-40
2023/04/01 04:17:19;;;;;;;;;;;;;;;13.32;100.00;97057.84;5033002;28;19920;-41
2023/04/01 04:19:45;;;;;;;;;;;;;;;13.38;100.00;97047.88;5034449;28;19928;-40
2023/04/01 04:22:10;;;;;;;;;;;;;;;13.33;100.00;97051.78;5034747;28;19921;-41
2023/04/01 04:24:35;;;;;;;;;;;;;;;13.46;100.00;97051.69;5034185;28;19924;-41
2023/04/01 04:27:00;;;;;;;;;;;;;;;13.30;100.00;97037.31;5034469;28;20031;-40
2023/04/01 04:29:26;;;;;;;;;;;;;;;13.02;100.00;97022.97;5034669;28;19944;-40
2023/04/01 04:31:51;;;;;;;;;;;;;;;13.45;100.00;97029.34;5034981;28;20352;-40
2023/04/01 04:34:18;;;;;;;;;;;;;;;13.21;100.00;97006.94;5033929;28;20559;-40
2023/04/01 04:36:43;;;;;;;;;;;;;;;13.21;100.00;97019.88;5032013;28;19924;-40
2023/04/01 04:39:08;;;;;;;;;;;;;;;13.47;100.00;97042.97;5034098;28;20935;-41
2023/04/01 04:41:33;;;;;;;;;;;;;;;13.45;100.00;97019.81;5034315;28;20370;-41
2023/04/01 04:43:59;;;;;;;;;;;;;;;13.51;100.00;97028.88;5031345;28;20518;-41
2023/04/01 04:46:24;;;;;;;;;;;;;;;13.27;100.00;97016.81;5033801;28;20649;-41
2023/04/01 04:48:49;;;;;;;;;;;;;;;13.70;100.00;97038.66;5034286;28;19925;-41
2023/04/01 04:51:15;;;;;;;;;;;;;;;14.16;100.00;97012.66;5034702;28;20010;-41
2023/04/01 04:53:40;;;;;;;;;;;;;;;13.67;100.00;97005.28;5034343;28;19924;-42
2023/04/01 04:56:06;;;;;;;;;;;;;;;13.49;100.00;97004.91;5032178;28;20008;-42
2023/04/01 04:58:31;;;;;;;;;;;;;;;13.41;100.00;97039.09;5031260;28;19999;-40
2023/04/01 05:00:56;;;;;;;;;;;;;;;13.21;100.00;97053.47;5033486;28;20504;-40
2023/04/01 05:03:21;;;;;;;;;;;;;;;13.36;100.00;97073.06;5034441;28;19925;-41
2023/04/01 05:05:51;;;;;;;;;;;;;;;13.52;100.00;97082.25;5032522;28;20077;-41
2023/04/01 05:08:16;;;;;;;;;;;;;;;13.42;100.00;97086.47;5032741;28;20549;-40
2023/04/01 05:10:41;;;;;;;;;;;;;;;13.75;100.00;97063.25;5034100;28;19920;-40
2023/04/01 05:13:06;;;;;;;;;;;;;;;13.29;100.00;97050.34;5033711;28;20046;-41
2023/04/01 05:15:31;;;;;;;;;;;;;;;13.86;100.00;97072.75;5034018;28;19966;-40
2023/04/01 05:17:57;;;;;;;;;;;;;;;13.04;100.00;97046.13;5033338;28;19957;-40
2023/04/01 05:20:22;;;;;;;;;;;;;;;13.36;100.00;97091.16;5035174;28;19924;-40
2023/04/01 05:22:47;;;;;;;;;;;;;;;13.34;100.00;97111.13;5038028;28;20027;-40
2023/04/01 05:25:12;;;;;;;;;;;;;;;13.51;100.00;97107.28;5036994;28;19920;-41
2023/04/01 05:27:38;;;;;;;;;;;;;;;13.43;100.00;97121.72;5038433;28;20393;-40
2023/04/01 05:30:04;;;;;;;;;;;;;;;13.71;100.00;97129.09;5037942;28;19917;-40
2023/04/01 05:32:30;;;;;;;;;;;;;;;14.00;100.00;97123.47;5038119;28;19974;-41
2023/04/01 05:34:55;;;;;;;;;;;;;;;13.76;100.00;97111.44;5036716;28;19921;-40
2023/04/01 05:37:22;;;;;;;;;;;;;;;13.73;100.00;97095.31;5037601;28;19916;-40
2023/04/01 05:39:47;;;;;;;;;;;;;;;13.72;100.00;97112.59;5038032;28;19947;-41
2023/04/01 05:42:13;;;;;;;;;;;;;;;14.06;100.00;97107.47;5036648;28;19921;-40
2023/04/01 05:44:38;;;;;;;;;;;;;;;14.04;100.00;97093.81;5036270;28;19970;-40
2023/04/01 05:47:04;;;;;;;;;;;;;;;13.66;100.00;97092.41;5036257;28;19959;-40
2023/04/01 05:49:29;;;;;;;;;;;;;;;13.58;100.00;97089.56;5037130;28;20313;-40
2023/04/01 05:51:54;;;;;;;;;;;;;;;13.78;100.00;97119.09;5036687;28;19956;-40
2023/04/01 05:54:20;;;;;;;;;;;;;;;13.99;100.00;97111.47;5036672;28;20377;-40
2023/04/01 05:56:45;;;;;;;;;;;;;;;13.67;100.00;97111.31;5035615;28;20439;-41
2023/04/01 05:59:10;;;;;;;;;;;;;;;13.86;100.00;97137.44;5036139;28;19928;-41
2023/04/01 06:01:36;;;;;;;;;;;;;;;13.54;100.00;97126.91;5036614;28;20081;-41
2023/04/01 06:04:01;;;;;;;;;;;;;;;13.33;100.00;97161.16;5036730;28;19920;-41
2023/04/01 06:06:27;;;;;;;;;;;;;;;13.93;100.00;97189.56;5036294;28;19966;-41
2023/04/01 06:08:52;;;;;;;;;;;;;;;14.06;100.00;97129.94;5036775;28;19928;-41
2023/04/01 06:11:24;;;;;;;;;;;;;;;14.42;100.00;97108.16;5037484;28;19921;-41
2023/04/01 06:14:05;;;;;;;;;;;;;;;13.99;100.00;97072.66;5036655;28;19995;-41
2023/04/01 06:16:39;;;;;;;;;;;;;;;13.27;100.00;97073.69;5036226;28;20347;-41
2023/04/01 06:19:05;;;;;;;;;;;;;;;14.28;100.00;97096.31;5036351;28;19924;-40
2023/04/01 06:21:34;;;;;;;;;;;;;;;13.59;100.00;97083.41;5036694;28;20406;-40
2023/04/01 06:24:17;;;;;;;;;;;;;;;14.25;100.00;97116.41;5036222;28;19920;-41
2023/04/01 06:27:04;;;;;;;;;;;;;;;13.73;100.00;97142.72;5035186;28;19979;-41
2023/04/01 06:29:29;;;;;;;;;;;;;;;14.16;100.00;97174.88;5035932;28;19921;-41
2023/04/01 06:32:05;;;;;;;;;;;;;;;14.79;100.00;97146.75;5035045;28;20226;-41
2023/04/01 06:34:49;;;;;;;;;;;;;;;14.29;100.00;97072.03;5037204;28;20007;-41
2023/04/01 06:37:18;;;;;;;;;;;;;;;14.55;100.00;97111.50;5035700;28;19956;-40
2023/04/01 06:40:19;;;;;;;;;;;;;;;14.35;100.00;97088.88;5034678;28;19929;-41
2023/04/01 06:42:53;;;;;;;;;;;;;;;14.68;100.00;97075.06;4993702;28;20388;-41
2023/04/01 06:45:31;;;;;;;;;;;;;;;13.68;100.00;97098.25;5023078;28;19971;-41
2023/04/01 06:47:56;;;;;;;;;;;;;;;14.59;100.00;97131.00;5033853;28;19964;-41
2023/04/01 06:50:25;;;;;;;;;;;;;;;14.49;100.00;97078.25;5035825;28;19964;-41
2023/04/01 06:52:59;;;;;;;;;;;;;;;14.16;100.00;97077.38;5034331;28;19924;-41
2023/04/01 06:55:32;;;;;;;;;;;;;;;14.38;100.00;97106.75;5032582;28;19921;-41
2023/04/01 06:57:58;;;;;;;;;;;;;;;14.20;100.00;97091.69;5034519;28;19931;-40
2023/04/01 07:00:26;;;;;;;;;;;;;;;14.73;100.00;97091.06;5036965;28;19928;-41
2023/04/01 07:02:58;;;;;;;;;;;;;;;14.74;100.00;97090.13;5036246;28;19920;-41
2023/04/01 07:05:23;;;;;;;;;;;;;;;14.25;100.00;97098.28;5033728;28;20379;-41
2023/04/01 07:07:51;;;;;;;;;;;;;;;14.27;100.00;97104.19;5035198;28;19916;-41
2023/04/01 07:10:16;;;;;;;;;;;;;;;15.17;100.00;97109.19;5032618;28;20800;-41
2023/04/01 07:12:47;;;;;;;;;;;;;;;15.31;100.00;97063.97;5035471;28;19916;-41
2023/04/01 07:15:18;;;;;;;;;;;;;;;15.34;100.00;97032.59;5033003;28;20392;-41
2023/04/01 07:17:43;;;;;;;;;;;;;;;15.27;100.00;97038.28;5033922;28;20552;-41
2023/04/01 07:20:29;;;;;;;;;;;;;;;15.65;100.00;97031.69;5032712;28;19931;-41
2023/04/01 07:22:56;;;;;;;;;;;;;;;15.72;100.00;97011.25;5034985;28;19921;-41
2023/04/01 07:25:26;;;;;;;;;;;;;;;14.80;100.00;97029.19;5032538;28;20031;-41
2023/04/01 07:28:17;;;;;;;;;;;;;;;14.91;100.00;97041.28;5017411;28;19966;-41
2023/04/01 07:30:48;;;;;;;;;;;;;;;15.04;100.00;97047.13;5033682;28;19968;-41
2023/04/01 07:33:15;;;;;;;;;;;;;;;15.24;100.00;97063.66;5033151;28;19925;-41
2023/04/01 07:35:50;;;;;;;;;;;;;;;15.74;100.00;97055.25;5031703;28;20026;-41
2023/04/01 07:38:21;;;;;;;;;;;;;;;14.94;100.00;97078.16;5034366;28;20035;-41
2023/04/01 07:40:48;;;;;;;;;;;;;;;15.12;100.00;97091.41;5034083;28;19964;-41
2023/04/01 07:43:13;;;;;;;;;;;;;;;15.64;100.00;97075.91;5033020;28;19927;-41
2023/04/01 07:46:00;;;;;;;;;;;;;;;15.48;100.00;97046.03;5030853;28;19921;-41
2023/04/01 07:48:31;;;;;;;;;;;;;;;16.23;100.00;97056.25;5034206;28;20328;-41
2023/04/01 07:51:02;;;;;;;;;;;;;;;16.31;100.00;97018.28;5033956;28;19921;-42
2023/04/01 07:53:38;;;;;;;;;;;;;;;16.43;100.00;97023.34;5035005;28;20011;-41
2023/04/01 07:56:09;;;;;;;;;;;;;;;15.77;100.00;97035.03;5033577;28;19920;-41
2023/04/01 07:58:37;;;;;;;;;;;;;;;15.96;100.00;97028.28;5032983;28;20697;-41
2023/04/01 08:01:09;;;;;;;;;;;;;;;16.70;100.00;97018.31;5034104;28;20023;-41
2023/04/01 08:03:50;;;;;;;;;;;;;;;15.94;100.00;97019.81;5032756;28;20201;-41
2023/04/01 08:06:15;;;;;;;;;;;;;;;16.04;100.00;97050.03;5032321;28;19921;-41
2023/04/01 08:08:53;;;;;;;;;;;;;;;16.25;100.00;97030.97;5032871;28;20051;-41
2023/04/01 08:11:34;;;;;;;;;;;;;;;16.14;100.00;97018.09;5032393;28;20491;-41
2023/04/01 08:14:11;;;;;;;;;;;;;;;16.38;100.00;97017.75;5033365;28;19925;-41
2023/04/01 08:16:45;;;;;;;;;;;;;;;16.37;100.00;97000.50;5032814;28;19921;-41
2023/04/01 08:19:13;;;;;;;;;;;;;;;16.02;100.00;97038.16;5033591;28;19968;-41
2023/04/01 08:21:39;;;;;;;;;;;;;;;16.58;100.00;97014.22;5034224;28;19923;-40
2023/04/01 08:24:07;;;;;;;;;;;;;;;16.21;100.00;97017.41;5033469;28;19920;-41
2023/04/01 08:26:39;;;;;;;;;;;;;;;15.79;100.00;97038.31;5031327;28;19920;-41
2023/04/01 08:29:15;;;;;;;;;;;;;;;15.30;100.00;97052.75;5032337;28;19925;-41
2023/04/01 08:31:56;;;;;;;;;;;;;;;16.00;100.00;97091.97;5033413;28;19932;-41
2023/04/01 08:34:23;;;;;;;;;;;;;;;16.24;100.00;97095.09;5030513;28;20043;-41
2023/04/01 08:37:00;;;;;;;;;;;;;;;15.95;100.00;97043.03;5030807;28;20016;-41
2023/04/01 08:39:26;;;;;;;;;;;;;;;16.17;100.00;97029.03;5033607;28;20374;-41
2023/04/01 08:41:51;;;;;;;;;;;;;;;16.52;100.00;97051.13;5033168;28;19931;-41
2023/04/01 08:44:23;;;;;;;;;;;;;;;16.09;100.00;97037.47;5030833;28;20872;-41
2023/04/01 08:47:08;;;;;;;;;;;;;;;16.56;100.00;97039.53;5031829;28;20031;-41
2023/04/01 08:49:48;;;;;;;;;;;;;;;16.20;100.00;97052.16;5002042;28;19951;-41
2023/04/01 08:52:31;;;;;;;;;;;;;;;15.91;100.00;97043.44;5030358;28;19925;-41
2023/04/01 08:54:59;;;;;;;;;;;;;;;15.87;100.00;97056.69;5032986;28;19927;-41
2023/04/01 08:57:25;;;;;;;;;;;;;;;15.46;100.00;97084.28;5036077;28;19921;-40
2023/04/01 08:59:56;;;;;;;;;;;;;;;16.41;100.00;97072.84;5035804;28;20550;-41
2023/04/01 09:02:24;;;;;;;;;;;;;;;16.73;100.00;97033.63;5035444;28;19927;-41
2023/04/01 09:04:49;;;;;;;;;;;;;;;16.54;100.00;97019.81;5035789;28;19928;-41
2023/04/01 09:07:33;;;;;;;;;;;;;;;16.94;100.00;97009.31;5036440;28;20440;-40
2023/04/01 09:09:58;;;;;;;;;;;;;;;16.47;100.00;97006.56;5036352;28;19921;-41
2023/04/01 09:12:31;;;;;;;;;;;;;;;16.86;100.00;97006.59;5037437;28;19917;-40
2023/04/01 09:15:06;;;;;;;;;;;;;;;17.17;100.00;96975.22;5032829;28;20033;-41
2023/04/01 09:17:34;;;;;;;;;;;;;;;17.11;100.00;96959.22;5035440;28;20003;-40
2023/04/01 09:19:59;;;;;;;;;;;;;;;16.87;100.00;96982.22;5037173;28;19924;-40
2023/04/01 09:22:57;;;;;;;;;;;;;;;17.28;100.00;96996.66;5031575;28;20039;-41
2023/04/01 09:25:22;;;;;;;;;;;;;;;17.10;100.00;96978.34;4989415;28;20032;-41
2023/04/01 09:27:47;;;;;;;;;;;;;;;17.83;100.00;96969.94;5035913;28;20011;-40
2023/04/01 09:30:13;;;;;;;;;;;;;;;16.59;100.00;96966.47;5035808;28;20516;-41
2023/04/01 09:32:42;;;;;;;;;;;;;;;16.63;100.00;97012.03;5035406;28;19936;-41
2023/04/01 09:35:24;;;;;;;;;;;;;;;17.76;100.00;96984.47;5031289;28;19956;-41
2023/04/01 09:38:08;;;;;;;;;;;;;;;17.49;100.00;96986.09;5034996;28;19921;-41
2023/04/01 09:40:40;;;;;;;;;;;;;;;17.76;100.00;96963.66;5035302;28;19928;-40
2023/04/01 09:43:24;;;;;;;;;;;;;;;16.70;100.00;96983.72;5034494;28;19920;-41
2023/04/01 09:46:03;;;;;;;;;;;;;;;17.64;100.00;97006.44;5032173;28;19920;-41
2023/04/01 09:48:44;;;;;;;;;;;;;;;17.17;100.00;96983.81;5033701;28;19916;-41
2023/04/01 09:51:15;;;;;;;;;;;;;;;17.71;100.00;96997.91;5036862;28;20444;-41
2023/04/01 09:53:47;;;;;;;;;;;;;;;17.48;100.00;97027.88;5036873;28;20317;-41
2023/04/01 09:56:31;;;;;;;;;;;;;;;16.71;100.00;97045.13;5031286;28;20019;-41
2023/04/01 09:58:57;;;;;;;;;;;;;;;16.63;100.00;97090.00;5034121;28;19921;-41
2023/04/01 10:01:39;;;;;;;;;;;;;;;17.33;100.00;97102.91;5035129;28;19924;-41
2023/04/01 10:04:23;;;;;;;;;;;;;;;17.34;100.00;97097.59;5035389;28;19937;-41
2023/04/01 10:07:08;;;;;;;;;;;;;;;17.58;100.00;97046.88;5029154;28;19925;-41
2023/04/01 10:09:42;;;;;;;;;;;;;;;17.10;100.00;97048.56;5030053;28;19925;-41
2023/04/01 10:12:14;;;;;;;;;;;;;;;16.09;100.00;97070.41;5033942;28;19920;-42
2023/04/01 10:14:58;;;;;;;;;;;;;;;17.09;100.00;97098.97;5035120;28;19924;-42
2023/04/01 10:17:42;;;;;;;;;;;;;;;15.33;100.00;97135.53;5035627;28;20010;-41
2023/04/01 10:20:26;;;;;;;;;;;;;;;14.94;100.00;97233.69;5033207;28;19929;-41
2023/04/01 10:22:56;;;;;;;;;;;;;;;15.13;100.00;97313.44;5034568;28;20008;-42
2023/04/01 10:25:24;;;;;;;;;;;;;;;15.65;100.00;97378.59;5033076;28;19928;-41
2023/04/01 10:28:05;;;;;;;;;;;;;;;15.30;100.00;97396.88;5036135;28;19917;-42
2023/04/01 10:30:54;;;;;;;;;;;;;;;15.81;100.00;97342.72;5036309;28;20031;-42
2023/04/01 10:33:25;;;;;;;;;;;;;;;15.40;100.00;97339.00;5017643;28;20007;-41
2023/04/01 10:36:02;;;;;;;;;;;;;;;14.48;100.00;97402.94;5036514;28;19913;-42
2023/04/01 10:38:33;;;;;;;;;;;;;;;15.26;100.00;97467.16;5033976;28;19921;-42
2023/04/01 10:41:01;;;;;;;;;;;;;;;14.70;100.00;97428.13;5035343;28;20503;-43
2023/04/01 10:43:27;;;;;;;;;;;;;;;15.04;100.00;97501.63;5034464;28;20049;-43
2023/04/01 10:45:52;;;;;;;;;;;;;;;14.79;100.00;97530.28;5033983;28;20027;-42
2023/04/01 10:48:18;;;;;;;;;;;;;;;14.94;100.00;97573.25;5035134;28;20366;-42
2023/04/01 10:51:02;;;;;;;;;;;;;;;14.68;100.00;97574.28;5036559;28;20934;-42
2023/04/01 10:53:49;;;;;;;;;;;;;;;14.83;100.00;97610.31;5034617;28;19974;-42
2023/04/01 10:56:30;;;;;;;;;;;;;;;15.42;100.00;97586.13;5034180;28;19927;-42
2023/04/01 10:58:55;;;;;;;;;;;;;;;14.60;100.00;97609.34;5036166;28;20228;-42
2023/04/01 11:01:20;;;;;;;;;;;;;;;16.59;100.00;97611.00;5036481;28;19925;-42
2023/04/01 11:04:01;;;;;;;;;;;;;;;16.04;100.00;97545.19;5036635;28;20369;-42
2023/04/01 11:06:38;;;;;;;;;;;;;;;16.25;100.00;97485.53;5035557;28;19921;-42
2023/04/01 11:09:03;;;;;;;;;;;;;;;15.33;100.00;97466.69;5037039;28;19920;-42
2023/04/01 11:11:35;;;;;;;;;;;;;;;15.47;100.00;97506.19;5035294;28;19920;-42
2023/04/01 11:14:19;;;;;;;;;;;;;;;15.83;100.00;97538.09;5037893;28;19978;-42
2023/04/01 11:16:59;;;;;;;;;;;;;;;16.20;100.00;97550.81;5032813;28;19925;-42
2023/04/01 11:19:33;;;;;;;;;;;;;;;15.73;100.00;97511.19;5036293;28;20028;-42
2023/04/01 11:21:58;;;;;;;;;;;;;;;16.24;100.00;97478.69;5034408;28;19920;-42
2023/04/01 11:24:30;;;;;;;;;;;;;;;14.83;100.00;97443.63;5036136;28;19936;-42
2023/04/01 11:27:14;;;;;;;;;;;;;;;15.41;100.00;97505.81;5034894;28;19917;-42
2023/04/01 11:29:52;;;;;;;;;;;;;;;14.81;100.00;97512.88;5034841;28;19932;-42
2023/04/01 11:32:36;;;;;;;;;;;;;;;15.23;100.00;97565.09;5033992;28;19932;-42
2023/04/01 11:35:19;;;;;;;;;;;;;;;14.19;100.00;97613.03;5036041;28;19998;-42
2023/04/01 11:37:57;;;;;;;;;;;;;;;16.00;100.00;97663.19;5034751;28;19928;-42
2023/04/01 11:40:35;;;;;;;;;;;;;;;14.36;100.00;97592.91;5035778;28;19921;-42
2023/04/01 11:43:18;;;;;;;;;;;;;;;15.34;100.00;97640.34;5034596;28;20547;-42
2023/04/01 11:46:04;;;;;;;;;;;;;;;15.70;100.00;97672.31;5032864;28;19925;-42
2023/04/01 11:48:34;;;;;;;;;;;;;;;16.22;100.00;97663.22;5036179;28;19991;-41
2023/04/01 11:50:59;;;;;;;;;;;;;;;17.48;100.00;97579.59;5035356;28;20511;-42
2023/04/01 11:53:27;;;;;;;;;;;;;;;16.90;100.00;97486.38;5035349;28;19917;-41
2023/04/01 11:56:11;;;;;;;;;;;;;;;15.97;100.00;97445.34;5035133;28;19974;-41
2023/04/01 11:58:36;;;;;;;;;;;;;;;15.39;100.00;97505.94;5036134;28;20408;-41
2023/04/01 12:01:13;;;;;;;;;;;;;;;15.85;100.00;97545.75;5035701;28;19924;-41
2023/04/01 12:03:44;;;;;;;;;;;;;;;15.60;100.00;97529.44;5036136;28;19917;-41
2023/04/01 12:06:21;;;;;;;;;;;;;;;15.31;100.00;97588.69;5034598;28;19960;-41
2023/04/01 12:08:46;;;;;;;;;;;;;;;15.87;100.00;97620.00;5033934;28;19970;-41
2023/04/01 12:11:18;;;;;;;;;;;;;;;16.16;100.00;97549.41;5035322;28;20015;-41
2023/04/01 12:13:45;;;;;;;;;;;;;;;14.80;100.00;97563.03;5034334;28;20570;-41
2023/04/01 12:16:20;;;;;;;;;;;;;;;14.85;100.00;97642.13;5034476;28;19921;-41
2023/04/01 12:18:57;;;;;;;;;;;;;;;15.32;100.00;97615.47;5035995;28;20657;-41
2023/04/01 12:21:22;;;;;;;;;;;;;;;15.52;100.00;97611.41;5031165;28;20400;-41
2023/04/01 12:23:53;;;;;;;;;;;;;;;15.40;100.00;97663.25;5030198;28;19927;-41
2023/04/01 12:26:25;;;;;;;;;;;;;;;14.45;100.00;97636.28;5033943;28;19964;-41
2023/04/01 12:28:50;;;;;;;;;;;;;;;14.58;100.00;97691.53;5031453;28;19925;-41
2023/04/01 12:31:28;;;;;;;;;;;;;;;15.64;100.00;97709.09;5034040;28;20333;-41
2023/04/01 12:34:26;;;;;;;;;;;;;;;14.62;100.00;97674.03;5038377;28;20713;-41
2023/04/01 12:36:54;;;;;;;;;;;;;;;15.16;100.00;97714.28;4994478;28;19912;-41
2023/04/01 12:39:20;;;;;;;;;;;;;;;15.07;100.00;97684.66;5038767;28;19921;-41
2023/04/01 12:42:04;;;;;;;;;;;;;;;15.22;100.00;97740.63;5039091;28;19917;-41
2023/04/01 12:44:38;;;;;;;;;;;;;;;15.64;100.00;97792.13;5036532;28;19921;-41
2023/04/01 12:47:22;;;;;;;;;;;;;;;15.16;100.00;97724.66;5037840;28;20018;-41
2023/04/01 12:49:53;;;;;;;;;;;;;;;16.19;100.00;97723.19;5039027;28;19956;-41